sensor_id;sensor_type;location;lat;lon;timestamp;pressure;altitude;pressure_sealevel;temperature;humidity
72896;BME280;61036;53.224;6.554;2023-05-07T00:01:12;101748.03;;;16.22;100.00
72896;BME280;61036;53.224;6.554;2023-05-07T00:03:38;101748.25;;;15.98;100.00
72896;BME280;61036;53.224;6.554;2023-05-07T00:06:04;101752.88;;;16.39;100.00
72896;BME280;61036;53.224;6.554;2023-05-07T00:08:29;101749.22;;;16.29;100.00
72896;BME280;61036;53.224;6.554;2023-05-07T00:10:55;101755.00;;;16.68;100.00
72896;BME280;61036;53.224;6.554;2023-05-07T00:13:20;101750.31;;;16.38;100.00
72896;BME280;61036;53.224;6.554;2023-05-07T00:15:46;101750.81;;;15.99;100.00
72896;BME280;61036;53.224;6.554;2023-05-07T00:18:11;101759.81;;;16.11;100.00
72896;BME280;61036;53.224;6.554;2023-05-07T00:20:37;101763.69;;;16.30;100.00
72896;BME280;61036;53.224;6.554;2023-05-07T00:23:02;101760.09;;;15.97;100.00
72896;BME280;61036;53.224;6.554;2023-05-07T00:25:28;101769.75;;;16.33;100.00
72896;BME280;61036;53.224;6.554;2023-05-07T00:27:53;101762.31;;;16.35;100.00
72896;BME280;61036;53.224;6.554;2023-05-07T00:30:19;101767.19;;;16.53;100.00
72896;BME280;61036;53.224;6.554;2023-05-07T00:32:44;101771.03;;;16.50;100.00
72896;BME280;61036;53.224;6.554;2023-05-07T00:35:14;101775.63;;;16.50;100.00
72896;BME280;61036;53.224;6.554;2023-05-07T00:37:39;101770.28;;;17.01;100.00
72896;BME280;61036;53.224;6.554;2023-05-07T00:40:06;101768.59;;;16.68;100.00
72896;BME280;61036;53.224;6.554;2023-05-07T00:42:33;101768.59;;;16.47;100.00
72896;BME280;61036;53.224;6.554;2023-05-07T00:44:58;101763.13;;;16.15;100.00
72896;BME280;61036;53.224;6.554;2023-05-07T00:47:25;101771.31;;;16.47;100.00
72896;BME280;61036;53.224;6.554;2023-05-07T00:49:51;101765.91;;;16.36;100.00
72896;BME280;61036;53.224;6.554;2023-05-07T00:52:18;101773.16;;;16.79;100.00
72896;BME280;61036;53.224;6.554;2023-05-07T00:54:45;101768.91;;;15.67;100.00
72896;BME280;61036;53.224;6.554;2023-05-07T00:57:11;101770.25;;;16.59;100.00
72896;BME280;61036;53.224;6.554;2023-05-07T00:59:37;101766.25;;;16.10;100.00
72896;BME280;61036;53.224;6.554;2023-05-07T01:02:03;101767.16;;;15.88;100.00
72896;BME280;61036;53.224;6.554;2023-05-07T01:04:29;101770.16;;;15.63;100.00
72896;BME280;61036;53.224;6.554;2023-05-07T01:06:56;101761.66;;;16.22;100.00
72896;BME280;61036;53.224;6.554;2023-05-07T01:09:27;101763.78;;;16.07;100.00
72896;BME280;61036;53.224;6.554;2023-05-07T01:11:55;101763.56;;;15.88;100.00
72896;BME280;61036;53.224;6.554;2023-05-07T01:14:23;101771.97;;;15.96;100.00
72896;BME280;61036;53.224;6.554;2023-05-07T01:16:48;101772.50;;;15.90;100.00
72896;BME280;61036;53.224;6.554;2023-05-07T01:19:18;101766.28;;;15.99;100.00
72896;BME280;61036;53.224;6.554;2023-05-07T01:21:48;101759.75;;;15.90;100.00
72896;BME280;61036;53.224;6.554;2023-05-07T01:24:16;101773.13;;;15.48;100.00
72896;BME280;61036;53.224;6.554;2023-05-07T01:26:43;101768.69;;;15.59;100.00
72896;BME280;61036;53.224;6.554;2023-05-07T01:29:10;101773.75;;;15.29;100.00
72896;BME280;61036;53.224;6.554;2023-05-07T01:31:37;101772.25;;;15.25;100.00
72896;BME280;61036;53.224;6.554;2023-05-07T01:34:03;101772.28;;;15.70;100.00
72896;BME280;61036;53.224;6.554;2023-05-07T01:36:30;101774.09;;;15.36;100.00
72896;BME280;61036;53.224;6.554;2023-05-07T01:38:58;101773.81;;;14.94;100.00
72896;BME280;61036;53.224;6.554;2023-05-07T01:41:24;101764.94;;;15.82;100.00
72896;BME280;61036;53.224;6.554;2023-05-07T01:43:51;101773.13;;;15.26;100.00
72896;BME280;61036;53.224;6.554;2023-05-07T01:46:17;101779.16;;;15.18;100.00
72896;BME280;61036;53.224;6.554;2023-05-07T01:48:45;101774.97;;;15.59;100.00
72896;BME280;61036;53.224;6.554;2023-05-07T01:51:11;101780.75;;;15.43;100.00
72896;BME280;61036;53.224;6.554;2023-05-07T01:53:39;101779.19;;;15.41;100.00
72896;BME280;61036;53.224;6.554;2023-05-07T01:56:06;101776.97;;;15.35;100.00
72896;BME280;61036;53.224;6.554;2023-05-07T01:58:33;101784.50;;;15.53;100.00
72896;BME280;61036;53.224;6.554;2023-05-07T02:00:58;101763.97;;;15.72;100.00
72896;BME280;61036;53.224;6.554;2023-05-07T02:03:24;101770.63;;;15.12;100.00
72896;BME280;61036;53.224;6.554;2023-05-07T02:05:58;101783.06;;;14.92;100.00
72896;BME280;61036;53.224;6.554;2023-05-07T02:08:36;101770.75;;;15.21;100.00
72896;BME280;61036;53.224;6.554;2023-05-07T02:11:01;101768.03;;;15.21;100.00
72896;BME280;61036;53.224;6.554;2023-05-07T02:13:29;101770.03;;;15.19;100.00
72896;BME280;61036;53.224;6.554;2023-05-07T02:15:56;101771.13;;;15.39;100.00
72896;BME280;61036;53.224;6.554;2023-05-07T02:18:23;101768.75;;;14.90;100.00
72896;BME280;61036;53.224;6.554;2023-05-07T02:20:48;101772.47;;;15.00;100.00
72896;BME280;61036;53.224;6.554;2023-05-07T02:23:14;101770.88;;;15.08;100.00
72896;BME280;61036;53.224;6.554;2023-05-07T02:25:40;101769.34;;;14.82;100.00
72896;BME280;61036;53.224;6.554;2023-05-07T02:28:05;101770.41;;;15.26;100.00
72896;BME280;61036;53.224;6.554;2023-05-07T02:30:57;101772.69;;;14.85;100.00
72896;BME280;61036;53.224;6.554;2023-05-07T02:33:24;101771.97;;;14.95;100.00
72896;BME280;61036;53.224;6.554;2023-05-07T02:35:50;101778.34;;;14.71;100.00
72896;BME280;61036;53.224;6.554;2023-05-07T02:38:17;101775.81;;;15.37;100.00
72896;BME280;61036;53.224;6.554;2023-05-07T02:40:43;101780.78;;;15.32;100.00
72896;BME280;61036;53.224;6.554;2023-05-07T02:43:09;101780.28;;;15.27;100.00
72896;BME280;61036;53.224;6.554;2023-05-07T02:45:34;101786.81;;;15.24;100.00
72896;BME280;61036;53.224;6.554;2023-05-07T02:48:03;101781.63;;;15.66;100.00
72896;BME280;61036;53.224;6.554;2023-05-07T02:50:29;101778.03;;;15.09;100.00
72896;BME280;61036;53.224;6.554;2023-05-07T02:52:55;101792.31;;;14.89;100.00
72896;BME280;61036;53.224;6.554;2023-05-07T02:55:20;101785.47;;;15.41;100.00
72896;BME280;61036;53.224;6.554;2023-05-07T02:57:46;101788.72;;;15.46;100.00
72896;BME280;61036;53.224;6.554;2023-05-07T03:00:16;101789.56;;;15.47;100.00
72896;BME280;61036;53.224;6.554;2023-05-07T03:02:51;101775.84;;;15.26;100.00
72896;BME280;61036;53.224;6.554;2023-05-07T03:05:16;101782.03;;;14.70;100.00
72896;BME280;61036;53.224;6.554;2023-05-07T03:07:42;101781.38;;;15.02;100.00
72896;BME280;61036;53.224;6.554;2023-05-07T03:10:11;101779.38;;;15.04;100.00
72896;BME280;61036;53.224;6.554;2023-05-07T03:12:37;101779.91;;;15.20;100.00
72896;BME280;61036;53.224;6.554;2023-05-07T03:15:03;101767.69;;;15.60;100.00
72896;BME280;61036;53.224;6.554;2023-05-07T03:17:28;101779.78;;;15.11;100.00
72896;BME280;61036;53.224;6.554;2023-05-07T03:19:54;101779.78;;;15.22;100.00
72896;BME280;61036;53.224;6.554;2023-05-07T03:22:20;101785.19;;;14.99;100.00
72896;BME280;61036;53.224;6.554;2023-05-07T03:24:45;101778.50;;;14.81;100.00
72896;BME280;61036;53.224;6.554;2023-05-07T03:27:11;101771.81;;;14.85;100.00
72896;BME280;61036;53.224;6.554;2023-05-07T03:29:36;101761.81;;;14.85;100.00
72896;BME280;61036;53.224;6.554;2023-05-07T03:32:02;101765.81;;;14.93;100.00
72896;BME280;61036;53.224;6.554;2023-05-07T03:34:27;101765.94;;;15.25;100.00
72896;BME280;61036;53.224;6.554;2023-05-07T03:36:53;101774.69;;;15.06;100.00
72896;BME280;61036;53.224;6.554;2023-05-07T03:39:20;101773.66;;;14.25;100.00
72896;BME280;61036;53.224;6.554;2023-05-07T03:41:46;101768.41;;;14.59;100.00
72896;BME280;61036;53.224;6.554;2023-05-07T03:44:11;101774.97;;;14.68;100.00
72896;BME280;61036;53.224;6.554;2023-05-07T03:46:37;101769.06;;;14.38;100.00
72896;BME280;61036;53.224;6.554;2023-05-07T03:49:03;101774.72;;;14.59;100.00
72896;BME280;61036;53.224;6.554;2023-05-07T03:51:30;101772.41;;;14.66;100.00
72896;BME280;61036;53.224;6.554;2023-05-07T03:53:55;101773.53;;;14.75;100.00
72896;BME280;61036;53.224;6.554;2023-05-07T03:56:23;101779.38;;;14.33;100.00
72896;BME280;61036;53.224;6.554;2023-05-07T03:58:53;101778.06;;;15.21;100.00
72896;BME280;61036;53.224;6.554;2023-05-07T04:01:20;101788.09;;;14.26;100.00
72896;BME280;61036;53.224;6.554;2023-05-07T04:03:46;101792.69;;;14.84;100.00
72896;BME280;61036;53.224;6.554;2023-05-07T04:06:11;101792.69;;;14.84;100.00
72896;BME280;61036;53.224;6.554;2023-05-07T04:08:38;101799.72;;;14.52;100.00
72896;BME280;61036;53.224;6.554;2023-05-07T04:11:05;101807.22;;;14.24;100.00
72896;BME280;61036;53.224;6.554;2023-05-07T04:13:32;101802.97;;;14.57;100.00
72896;BME280;61036;53.224;6.554;2023-05-07T04:16:01;101810.16;;;15.27;100.00
72896;BME280;61036;53.224;6.554;2023-05-07T04:18:27;101803.22;;;15.12;100.00
72896;BME280;61036;53.224;6.554;2023-05-07T04:20:53;101799.28;;;15.16;100.00
72896;BME280;61036;53.224;6.554;2023-05-07T04:23:20;101813.06;;;14.90;100.00
72896;BME280;61036;53.224;6.554;2023-05-07T04:25:45;101815.59;;;14.45;100.00
72896;BME280;61036;53.224;6.554;2023-05-07T04:28:29;101810.69;;;14.50;100.00
72896;BME280;61036;53.224;6.554;2023-05-07T04:30:57;101819.22;;;14.81;100.00
72896;BME280;61036;53.224;6.554;2023-05-07T04:33:23;101812.22;;;15.01;100.00
72896;BME280;61036;53.224;6.554;2023-05-07T04:35:49;101813.56;;;14.36;100.00
72896;BME280;61036;53.224;6.554;2023-05-07T04:38:15;101809.41;;;14.43;100.00
72896;BME280;61036;53.224;6.554;2023-05-07T04:40:41;101813.50;;;14.73;100.00
72896;BME280;61036;53.224;6.554;2023-05-07T04:43:09;101813.19;;;14.89;100.00
72896;BME280;61036;53.224;6.554;2023-05-07T04:45:41;101815.53;;;14.58;100.00
72896;BME280;61036;53.224;6.554;2023-05-07T04:48:09;101809.94;;;14.48;100.00
72896;BME280;61036;53.224;6.554;2023-05-07T04:50:37;101813.97;;;14.43;100.00
72896;BME280;61036;53.224;6.554;2023-05-07T04:53:03;101810.56;;;14.28;100.00
72896;BME280;61036;53.224;6.554;2023-05-07T04:55:29;101810.25;;;14.44;100.00
72896;BME280;61036;53.224;6.554;2023-05-07T04:57:54;101810.97;;;14.58;100.00
72896;BME280;61036;53.224;6.554;2023-05-07T05:00:20;101809.22;;;14.81;100.00
72896;BME280;61036;53.224;6.554;2023-05-07T05:02:48;101809.03;;;14.60;100.00
72896;BME280;61036;53.224;6.554;2023-05-07T05:05:17;101812.13;;;15.02;100.00
72896;BME280;61036;53.224;6.554;2023-05-07T05:07:44;101813.72;;;15.05;100.00
72896;BME280;61036;53.224;6.554;2023-05-07T05:10:09;101813.22;;;14.40;100.00
72896;BME280;61036;53.224;6.554;2023-05-07T05:12:38;101822.88;;;14.69;100.00
72896;BME280;61036;53.224;6.554;2023-05-07T05:15:04;101816.94;;;14.99;100.00
72896;BME280;61036;53.224;6.554;2023-05-07T05:17:31;101811.25;;;14.43;100.00
72896;BME280;61036;53.224;6.554;2023-05-07T05:19:56;101818.84;;;14.74;100.00
72896;BME280;61036;53.224;6.554;2023-05-07T05:22:23;101823.84;;;15.03;100.00
72896;BME280;61036;53.224;6.554;2023-05-07T05:24:48;101814.44;;;14.60;100.00
72896;BME280;61036;53.224;6.554;2023-05-07T05:27:14;101827.84;;;14.75;100.00
72896;BME280;61036;53.224;6.554;2023-05-07T05:29:40;101834.41;;;14.83;100.00
72896;BME280;61036;53.224;6.554;2023-05-07T05:32:05;101840.78;;;14.71;100.00
72896;BME280;61036;53.224;6.554;2023-05-07T05:34:32;101834.19;;;14.38;100.00
72896;BME280;61036;53.224;6.554;2023-05-07T05:36:59;101852.38;;;14.73;100.00
72896;BME280;61036;53.224;6.554;2023-05-07T05:39:25;101848.84;;;15.19;100.00
72896;BME280;61036;53.224;6.554;2023-05-07T05:41:50;101854.38;;;14.71;100.00
72896;BME280;61036;53.224;6.554;2023-05-07T05:44:16;101855.31;;;14.46;100.00
72896;BME280;61036;53.224;6.554;2023-05-07T05:46:42;101855.81;;;14.99;100.00
72896;BME280;61036;53.224;6.554;2023-05-07T05:49:08;101862.03;;;14.77;100.00
72896;BME280;61036;53.224;6.554;2023-05-07T05:51:34;101847.81;;;15.09;100.00
72896;BME280;61036;53.224;6.554;2023-05-07T05:53:59;101855.25;;;14.83;100.00
72896;BME280;61036;53.224;6.554;2023-05-07T05:56:25;101855.78;;;15.35;100.00
72896;BME280;61036;53.224;6.554;2023-05-07T05:58:51;101859.28;;;14.05;100.00
72896;BME280;61036;53.224;6.554;2023-05-07T06:01:17;101849.63;;;14.97;100.00
72896;BME280;61036;53.224;6.554;2023-05-07T06:03:43;101847.22;;;15.28;100.00
72896;BME280;61036;53.224;6.554;2023-05-07T06:06:13;101846.22;;;15.18;100.00
72896;BME280;61036;53.224;6.554;2023-05-07T06:08:40;101842.41;;;15.20;100.00
72896;BME280;61036;53.224;6.554;2023-05-07T06:11:06;101844.28;;;14.84;100.00
72896;BME280;61036;53.224;6.554;2023-05-07T06:13:35;101835.50;;;14.81;100.00
72896;BME280;61036;53.224;6.554;2023-05-07T06:16:01;101846.31;;;14.70;100.00
72896;BME280;61036;53.224;6.554;2023-05-07T06:18:26;101835.13;;;14.50;100.00
72896;BME280;61036;53.224;6.554;2023-05-07T06:20:53;101844.53;;;15.39;100.00
72896;BME280;61036;53.224;6.554;2023-05-07T06:23:24;101843.91;;;15.36;100.00
72896;BME280;61036;53.224;6.554;2023-05-07T06:25:50;101850.56;;;14.85;100.00
72896;BME280;61036;53.224;6.554;2023-05-07T06:28:17;101846.81;;;14.99;100.00
72896;BME280;61036;53.224;6.554;2023-05-07T06:30:43;101851.69;;;15.40;100.00
72896;BME280;61036;53.224;6.554;2023-05-07T06:33:08;101852.97;;;15.59;100.00
72896;BME280;61036;53.224;6.554;2023-05-07T06:35:34;101858.06;;;15.05;100.00
72896;BME280;61036;53.224;6.554;2023-05-07T06:38:00;101862.50;;;14.71;100.00
72896;BME280;61036;53.224;6.554;2023-05-07T06:40:28;101857.34;;;14.79;100.00
72896;BME280;61036;53.224;6.554;2023-05-07T06:42:53;101866.25;;;14.81;100.00
72896;BME280;61036;53.224;6.554;2023-05-07T06:45:35;101868.56;;;14.38;100.00
72896;BME280;61036;53.224;6.554;2023-05-07T06:48:02;101872.16;;;15.11;100.00
72896;BME280;61036;53.224;6.554;2023-05-07T06:50:31;101874.16;;;15.31;100.00
72896;BME280;61036;53.224;6.554;2023-05-07T06:52:57;101877.31;;;15.02;100.00
72896;BME280;61036;53.224;6.554;2023-05-07T06:55:22;101865.66;;;15.58;100.00
72896;BME280;61036;53.224;6.554;2023-05-07T06:57:48;101877.72;;;15.78;100.00
72896;BME280;61036;53.224;6.554;2023-05-07T07:00:14;101876.28;;;15.39;100.00
72896;BME280;61036;53.224;6.554;2023-05-07T07:02:46;101890.22;;;15.34;100.00
72896;BME280;61036;53.224;6.554;2023-05-07T07:05:14;101887.50;;;15.34;100.00
72896;BME280;61036;53.224;6.554;2023-05-07T07:07:39;101885.78;;;14.98;100.00
72896;BME280;61036;53.224;6.554;2023-05-07T07:10:06;101903.13;;;15.54;100.00
72896;BME280;61036;53.224;6.554;2023-05-07T07:12:32;101910.38;;;15.43;100.00
72896;BME280;61036;53.224;6.554;2023-05-07T07:14:57;101908.38;;;15.33;100.00
72896;BME280;61036;53.224;6.554;2023-05-07T07:17:23;101912.69;;;15.25;100.00
72896;BME280;61036;53.224;6.554;2023-05-07T07:19:49;101910.53;;;15.06;100.00
72896;BME280;61036;53.224;6.554;2023-05-07T07:22:14;101914.47;;;15.48;100.00
72896;BME280;61036;53.224;6.554;2023-05-07T07:24:40;101913.44;;;15.96;100.00
72896;BME280;61036;53.224;6.554;2023-05-07T07:27:08;101913.00;;;15.09;100.00
72896;BME280;61036;53.224;6.554;2023-05-07T07:29:34;101907.91;;;15.28;100.00
72896;BME280;61036;53.224;6.554;2023-05-07T07:31:59;101903.03;;;15.21;100.00
72896;BME280;61036;53.224;6.554;2023-05-07T07:34:25;101910.47;;;15.76;100.00
72896;BME280;61036;53.224;6.554;2023-05-07T07:36:51;101912.84;;;15.35;100.00
72896;BME280;61036;53.224;6.554;2023-05-07T07:39:18;101909.81;;;15.15;100.00
72896;BME280;61036;53.224;6.554;2023-05-07T07:41:44;101909.22;;;15.81;100.00
72896;BME280;61036;53.224;6.554;2023-05-07T07:44:11;101908.00;;;15.85;100.00
72896;BME280;61036;53.224;6.554;2023-05-07T07:46:39;101913.31;;;16.20;100.00
72896;BME280;61036;53.224;6.554;2023-05-07T07:49:05;101919.56;;;15.53;100.00
72896;BME280;61036;53.224;6.554;2023-05-07T07:51:31;101916.81;;;15.42;100.00
72896;BME280;61036;53.224;6.554;2023-05-07T07:53:58;101909.66;;;15.52;100.00
72896;BME280;61036;53.224;6.554;2023-05-07T07:56:23;101913.22;;;15.41;100.00
72896;BME280;61036;53.224;6.554;2023-05-07T07:58:49;101908.53;;;15.32;100.00
72896;BME280;61036;53.224;6.554;2023-05-07T08:01:15;101909.97;;;15.94;100.00
72896;BME280;61036;53.224;6.554;2023-05-07T08:03:42;101914.81;;;16.02;100.00
72896;BME280;61036;53.224;6.554;2023-05-07T08:06:07;101908.00;;;15.85;100.00
72896;BME280;61036;53.224;6.554;2023-05-07T08:08:34;101911.72;;;15.26;100.00
72896;BME280;61036;53.224;6.554;2023-05-07T08:11:00;101905.22;;;16.41;100.00
72896;BME280;61036;53.224;6.554;2023-05-07T08:13:30;101908.09;;;16.06;100.00
72896;BME280;61036;53.224;6.554;2023-05-07T08:15:55;101900.59;;;15.87;100.00
72896;BME280;61036;53.224;6.554;2023-05-07T08:18:21;101900.69;;;15.85;100.00
72896;BME280;61036;53.224;6.554;2023-05-07T08:20:48;101900.56;;;16.20;100.00
72896;BME280;61036;53.224;6.554;2023-05-07T08:23:18;101903.47;;;16.51;100.00
72896;BME280;61036;53.224;6.554;2023-05-07T08:25:45;101898.78;;;16.42;100.00
72896;BME280;61036;53.224;6.554;2023-05-07T08:28:11;101903.69;;;16.59;100.00
72896;BME280;61036;53.224;6.554;2023-05-07T08:30:38;101908.72;;;16.86;100.00
72896;BME280;61036;53.224;6.554;2023-05-07T08:33:03;101911.78;;;16.38;100.00
72896;BME280;61036;53.224;6.554;2023-05-07T08:35:29;101909.88;;;16.61;100.00
72896;BME280;61036;53.224;6.554;2023-05-07T08:37:55;101907.06;;;16.52;100.00
72896;BME280;61036;53.224;6.554;2023-05-07T08:40:25;101913.19;;;17.50;100.00
72896;BME280;61036;53.224;6.554;2023-05-07T08:42:52;101917.16;;;16.83;100.00
72896;BME280;61036;53.224;6.554;2023-05-07T08:45:19;101908.66;;;16.54;100.00
72896;BME280;61036;53.224;6.554;2023-05-07T08:47:55;101912.50;;;17.27;100.00
72896;BME280;61036;53.224;6.554;2023-05-07T08:50:25;101913.59;;;17.04;100.00
72896;BME280;61036;53.224;6.554;2023-05-07T08:52:51;101919.78;;;17.06;100.00
72896;BME280;61036;53.224;6.554;2023-05-07T08:55:18;101922.06;;;17.22;100.00
72896;BME280;61036;53.224;6.554;2023-05-07T08:57:44;101928.22;;;17.24;100.00
72896;BME280;61036;53.224;6.554;2023-05-07T09:00:11;101925.50;;;17.24;100.00
72896;BME280;61036;53.224;6.554;2023-05-07T09:02:38;101926.94;;;17.39;100.00
72896;BME280;61036;53.224;6.554;2023-05-07T09:05:06;101921.00;;;17.55;100.00
72896;BME280;61036;53.224;6.554;2023-05-07T09:07:33;101926.91;;;17.18;100.00
72896;BME280;61036;53.224;6.554;2023-05-07T09:10:02;101921.59;;;17.58;100.00
72896;BME280;61036;53.224;6.554;2023-05-07T09:12:28;101910.16;;;16.90;100.00
72896;BME280;61036;53.224;6.554;2023-05-07T09:14:54;101914.94;;;17.09;100.00
72896;BME280;61036;53.224;6.554;2023-05-07T09:17:20;101921.97;;;18.36;100.00
72896;BME280;61036;53.224;6.554;2023-05-07T09:19:46;101927.16;;;17.78;100.00
72896;BME280;61036;53.224;6.554;2023-05-07T09:22:14;101917.41;;;17.33;100.00
72896;BME280;61036;53.224;6.554;2023-05-07T09:24:57;101927.50;;;17.64;100.00
72896;BME280;61036;53.224;6.554;2023-05-07T09:27:25;101932.75;;;17.97;100.00
72896;BME280;61036;53.224;6.554;2023-05-07T09:29:52;101922.38;;;17.49;100.00
72896;BME280;61036;53.224;6.554;2023-05-07T09:32:18;101924.81;;;18.25;100.00
72896;BME280;61036;53.224;6.554;2023-05-07T09:34:44;101931.44;;;18.32;100.00
72896;BME280;61036;53.224;6.554;2023-05-07T09:37:12;101932.16;;;18.34;100.00
72896;BME280;61036;53.224;6.554;2023-05-07T09:39:45;101926.28;;;18.39;100.00
72896;BME280;61036;53.224;6.554;2023-05-07T09:42:13;101925.09;;;17.91;100.00
72896;BME280;61036;53.224;6.554;2023-05-07T09:44:41;101925.59;;;18.06;100.00
72896;BME280;61036;53.224;6.554;2023-05-07T09:47:16;101921.94;;;19.35;100.00
72896;BME280;61036;53.224;6.554;2023-05-07T09:49:47;101912.25;;;18.13;100.00
72896;BME280;61036;53.224;6.554;2023-05-07T09:52:16;101915.44;;;18.18;100.00
72896;BME280;61036;53.224;6.554;2023-05-07T09:54:46;101907.56;;;18.34;100.00
72896;BME280;61036;53.224;6.554;2023-05-07T09:57:15;101909.47;;;18.53;100.00
72896;BME280;61036;53.224;6.554;2023-05-07T09:59:45;101907.19;;;18.58;100.00
72896;BME280;61036;53.224;6.554;2023-05-07T10:02:15;101908.63;;;18.52;100.00
72896;BME280;61036;53.224;6.554;2023-05-07T10:04:48;101914.13;;;18.62;100.00
72896;BME280;61036;53.224;6.554;2023-05-07T10:07:16;101911.94;;;18.56;100.00
72896;BME280;61036;53.224;6.554;2023-05-07T10:09:43;101921.09;;;17.95;100.00
72896;BME280;61036;53.224;6.554;2023-05-07T10:12:18;101914.81;;;18.55;100.00
72896;BME280;61036;53.224;6.554;2023-05-07T10:14:45;101919.78;;;19.09;100.00
72896;BME280;61036;53.224;6.554;2023-05-07T10:17:16;101919.78;;;19.00;100.00
72896;BME280;61036;53.224;6.554;2023-05-07T10:19:44;101928.06;;;18.59;100.00
72896;BME280;61036;53.224;6.554;2023-05-07T10:22:11;101926.28;;;18.99;100.00
72896;BME280;61036;53.224;6.554;2023-05-07T10:24:43;101924.38;;;19.28;100.00
72896;BME280;61036;53.224;6.554;2023-05-07T10:27:15;101936.19;;;19.00;100.00
72896;BME280;61036;53.224;6.554;2023-05-07T10:30:02;101929.59;;;18.92;100.00
72896;BME280;61036;53.224;6.554;2023-05-07T10:32:40;101927.66;;;18.73;100.00
72896;BME280;61036;53.224;6.554;2023-05-07T10:35:17;101936.78;;;18.03;100.00
72896;BME280;61036;53.224;6.554;2023-05-07T10:37:45;101927.25;;;18.88;100.00
72896;BME280;61036;53.224;6.554;2023-05-07T10:40:11;101929.06;;;18.68;100.00
72896;BME280;61036;53.224;6.554;2023-05-07T10:42:37;101932.53;;;18.60;100.00
72896;BME280;61036;53.224;6.554;2023-05-07T10:45:13;101942.78;;;19.46;100.00
72896;BME280;61036;53.224;6.554;2023-05-07T10:48:12;101938.72;;;18.62;100.00
72896;BME280;61036;53.224;6.554;2023-05-07T10:50:44;101938.84;;;19.87;100.00
72896;BME280;61036;53.224;6.554;2023-05-07T10:55:51;101938.63;;;20.08;100.00
72896;BME280;61036;53.224;6.554;2023-05-07T11:00:50;101933.66;;;20.49;100.00
72896;BME280;61036;53.224;6.554;2023-05-07T11:03:24;101929.25;;;20.84;100.00
72896;BME280;61036;53.224;6.554;2023-05-07T11:06:15;101912.09;;;21.17;100.00
72896;BME280;61036;53.224;6.554;2023-05-07T11:08:55;101921.69;;;19.85;100.00
72896;BME280;61036;53.224;6.554;2023-05-07T11:14:42;101912.03;;;20.18;100.00
72896;BME280;61036;53.224;6.554;2023-05-07T11:17:12;101905.53;;;20.92;100.00
72896;BME280;61036;53.224;6.554;2023-05-07T11:19:55;101906.78;;;21.60;100.00
72896;BME280;61036;53.224;6.554;2023-05-07T11:22:50;101909.44;;;20.44;100.00
72896;BME280;61036;53.224;6.554;2023-05-07T11:25:34;101910.06;;;19.73;100.00
72896;BME280;61036;53.224;6.554;2023-05-07T11:28:17;101909.34;;;20.82;100.00
72896;BME280;61036;53.224;6.554;2023-05-07T11:30:51;101913.06;;;20.17;100.00
72896;BME280;61036;53.224;6.554;2023-05-07T11:33:19;101914.78;;;20.73;100.00
72896;BME280;61036;53.224;6.554;2023-05-07T11:35:46;101924.31;;;20.42;100.00
72896;BME280;61036;53.224;6.554;2023-05-07T11:38:14;101920.84;;;20.40;100.00
72896;BME280;61036;53.224;6.554;2023-05-07T11:40:56;101910.59;;;20.69;100.00
72896;BME280;61036;53.224;6.554;2023-05-07T11:43:22;101930.28;;;20.27;100.00
72896;BME280;61036;53.224;6.554;2023-05-07T11:45:49;101920.78;;;20.31;100.00
72896;BME280;61036;53.224;6.554;2023-05-07T11:48:15;101921.00;;;19.73;100.00
72896;BME280;61036;53.224;6.554;2023-05-07T11:51:01;101911.97;;;20.83;100.00
72896;BME280;61036;53.224;6.554;2023-05-07T11:53:27;101919.38;;;20.55;100.00
72896;BME280;61036;53.224;6.554;2023-05-07T11:55:55;101929.84;;;20.60;100.00
72896;BME280;61036;53.224;6.554;2023-05-07T11:58:24;101933.56;;;20.41;100.00
72896;BME280;61036;53.224;6.554;2023-05-07T12:00:54;101920.50;;;21.16;100.00
72896;BME280;61036;53.224;6.554;2023-05-07T12:03:20;101917.72;;;21.34;100.00
72896;BME280;61036;53.224;6.554;2023-05-07T12:05:46;101930.91;;;21.48;100.00
72896;BME280;61036;53.224;6.554;2023-05-07T12:08:19;101928.81;;;21.06;100.00
72896;BME280;61036;53.224;6.554;2023-05-07T12:10:47;101923.44;;;20.41;100.00
72896;BME280;61036;53.224;6.554;2023-05-07T12:13:20;101940.75;;;21.85;100.00
72896;BME280;61036;53.224;6.554;2023-05-07T12:15:50;101935.69;;;20.74;100.00
72896;BME280;61036;53.224;6.554;2023-05-07T12:18:16;101934.59;;;20.85;100.00
72896;BME280;61036;53.224;6.554;2023-05-07T12:20:42;101935.13;;;20.71;100.00
72896;BME280;61036;53.224;6.554;2023-05-07T12:23:08;101933.31;;;20.34;100.00
72896;BME280;61036;53.224;6.554;2023-05-07T12:25:37;101926.78;;;22.04;100.00
72896;BME280;61036;53.224;6.554;2023-05-07T12:28:03;101936.34;;;21.40;100.00
72896;BME280;61036;53.224;6.554;2023-05-07T12:30:39;101933.91;;;21.63;100.00
72896;BME280;61036;53.224;6.554;2023-05-07T12:33:05;101923.09;;;21.61;100.00
72896;BME280;61036;53.224;6.554;2023-05-07T12:35:32;101933.97;;;21.27;100.00
72896;BME280;61036;53.224;6.554;2023-05-07T12:38:01;101931.41;;;21.69;100.00
72896;BME280;61036;53.224;6.554;2023-05-07T12:40:40;101929.22;;;22.50;100.00
72896;BME280;61036;53.224;6.554;2023-05-07T12:43:06;101932.72;;;21.65;100.00
72896;BME280;61036;53.224;6.554;2023-05-07T12:45:37;101928.81;;;22.79;100.00
72896;BME280;61036;53.224;6.554;2023-05-07T12:48:04;101930.59;;;21.51;100.00
72896;BME280;61036;53.224;6.554;2023-05-07T12:50:35;101935.34;;;22.01;100.00
72896;BME280;61036;53.224;6.554;2023-05-07T12:53:03;101937.16;;;21.84;100.00